sensor_id;sensor_type;location;lat;lon;timestamp;P1;durP1;ratioP1;P2;durP2;ratioP2
72406;SDS011;60396;47.550;18.828;2022-10-16T00:01:22;16.35;;;5.60;;
72406;SDS011;60396;47.550;18.828;2022-10-16T00:03:51;12.48;;;5.40;;
72406;SDS011;60396;47.550;18.828;2022-10-16T00:06:20;18.23;;;6.03;;
72406;SDS011;60396;47.550;18.828;2022-10-16T00:08:48;15.63;;;5.80;;
72406;SDS011;60396;47.550;18.828;2022-10-16T00:11:21;14.48;;;5.60;;
72406;SDS011;60396;47.550;18.828;2022-10-16T00:13:54;14.93;;;6.05;;
72406;SDS011;60396;47.550;18.828;2022-10-16T00:16:24;15.02;;;6.15;;
72406;SDS011;60396;47.550;18.828;2022-10-16T00:18:52;20.10;;;6.22;;
72406;SDS011;60396;47.550;18.828;2022-10-16T00:21:24;12.53;;;5.53;;
72406;SDS011;60396;47.550;18.828;2022-10-16T00:23:55;13.18;;;6.03;;
72406;SDS011;60396;47.550;18.828;2022-10-16T00:26:24;15.07;;;6.07;;
72406;SDS011;60396;47.550;18.828;2022-10-16T00:28:52;15.27;;;5.87;;
72406;SDS011;60396;47.550;18.828;2022-10-16T00:31:21;14.68;;;5.50;;
72406;SDS011;60396;47.550;18.828;2022-10-16T00:33:49;19.70;;;6.40;;
72406;SDS011;60396;47.550;18.828;2022-10-16T00:36:18;13.52;;;5.72;;
72406;SDS011;60396;47.550;18.828;2022-10-16T00:38:50;12.85;;;5.82;;
72406;SDS011;60396;47.550;18.828;2022-10-16T00:41:21;13.52;;;6.10;;
72406;SDS011;60396;47.550;18.828;2022-10-16T00:43:57;14.65;;;6.22;;
72406;SDS011;60396;47.550;18.828;2022-10-16T00:46:43;14.00;;;6.07;;
72406;SDS011;60396;47.550;18.828;2022-10-16T00:49:13;12.93;;;6.03;;
72406;SDS011;60396;47.550;18.828;2022-10-16T00:51:43;16.98;;;6.43;;
72406;SDS011;60396;47.550;18.828;2022-10-16T00:54:16;16.33;;;6.07;;
72406;SDS011;60396;47.550;18.828;2022-10-16T00:56:47;15.32;;;5.65;;
72406;SDS011;60396;47.550;18.828;2022-10-16T00:59:19;12.93;;;5.37;;
72406;SDS011;60396;47.550;18.828;2022-10-16T01:01:49;11.95;;;5.50;;
72406;SDS011;60396;47.550;18.828;2022-10-16T01:04:17;12.80;;;5.45;;
72406;SDS011;60396;47.550;18.828;2022-10-16T01:20:39;10.57;;;5.35;;
72406;SDS011;60396;47.550;18.828;2022-10-16T01:23:20;11.52;;;5.37;;
72406;SDS011;60396;47.550;18.828;2022-10-16T01:25:53;15.87;;;6.20;;
72406;SDS011;60396;47.550;18.828;2022-10-16T01:28:28;16.27;;;6.10;;
72406;SDS011;60396;47.550;18.828;2022-10-16T01:31:06;14.98;;;5.95;;
72406;SDS011;60396;47.550;18.828;2022-10-16T01:33:36;15.63;;;5.55;;
72406;SDS011;60396;47.550;18.828;2022-10-16T01:36:11;12.35;;;5.35;;
72406;SDS011;60396;47.550;18.828;2022-10-16T01:38:41;13.70;;;5.50;;
72406;SDS011;60396;47.550;18.828;2022-10-16T01:41:12;12.48;;;5.05;;
72406;SDS011;60396;47.550;18.828;2022-10-16T01:44:38;11.80;;;5.37;;
72406;SDS011;60396;47.550;18.828;2022-10-16T01:46:46;12.30;;;5.95;;
72406;SDS011;60396;47.550;18.828;2022-10-16T01:49:14;14.85;;;5.75;;
72406;SDS011;60396;47.550;18.828;2022-10-16T01:51:43;14.20;;;6.30;;
72406;SDS011;60396;47.550;18.828;2022-10-16T01:54:12;16.00;;;5.55;;
72406;SDS011;60396;47.550;18.828;2022-10-16T01:56:41;18.80;;;6.53;;
72406;SDS011;60396;47.550;18.828;2022-10-16T01:59:13;15.18;;;6.50;;
72406;SDS011;60396;47.550;18.828;2022-10-16T02:01:44;14.63;;;5.50;;
72406;SDS011;60396;47.550;18.828;2022-10-16T02:04:15;14.07;;;5.57;;
72406;SDS011;60396;47.550;18.828;2022-10-16T02:06:44;14.70;;;5.97;;
72406;SDS011;60396;47.550;18.828;2022-10-16T02:09:12;13.10;;;5.93;;
72406;SDS011;60396;47.550;18.828;2022-10-16T02:11:40;14.18;;;6.00;;
72406;SDS011;60396;47.550;18.828;2022-10-16T02:14:07;13.43;;;6.25;;
72406;SDS011;60396;47.550;18.828;2022-10-16T02:16:37;13.83;;;5.70;;
72406;SDS011;60396;47.550;18.828;2022-10-16T02:19:14;12.35;;;5.90;;
72406;SDS011;60396;47.550;18.828;2022-10-16T02:21:43;15.65;;;6.30;;
72406;SDS011;60396;47.550;18.828;2022-10-16T02:27:16;13.55;;;6.00;;
72406;SDS011;60396;47.550;18.828;2022-10-16T02:30:05;11.73;;;5.73;;
72406;SDS011;60396;47.550;18.828;2022-10-16T02:32:36;17.05;;;6.47;;
72406;SDS011;60396;47.550;18.828;2022-10-16T02:35:04;18.40;;;6.72;;
72406;SDS011;60396;47.550;18.828;2022-10-16T02:37:33;14.50;;;5.60;;
72406;SDS011;60396;47.550;18.828;2022-10-16T02:40:01;17.20;;;6.62;;
72406;SDS011;60396;47.550;18.828;2022-10-16T02:42:36;16.97;;;7.10;;
72406;SDS011;60396;47.550;18.828;2022-10-16T02:45:05;11.82;;;5.35;;
72406;SDS011;60396;47.550;18.828;2022-10-16T02:47:34;14.38;;;5.85;;
72406;SDS011;60396;47.550;18.828;2022-10-16T02:50:02;16.50;;;6.37;;
72406;SDS011;60396;47.550;18.828;2022-10-16T02:52:31;16.25;;;6.25;;
72406;SDS011;60396;47.550;18.828;2022-10-16T02:54:58;15.80;;;6.30;;
72406;SDS011;60396;47.550;18.828;2022-10-16T02:57:26;10.95;;;5.15;;
72406;SDS011;60396;47.550;18.828;2022-10-16T02:59:54;15.48;;;5.12;;
72406;SDS011;60396;47.550;18.828;2022-10-16T03:02:22;11.98;;;5.37;;
72406;SDS011;60396;47.550;18.828;2022-10-16T03:04:50;13.98;;;5.30;;
72406;SDS011;60396;47.550;18.828;2022-10-16T03:07:17;13.50;;;5.57;;
72406;SDS011;60396;47.550;18.828;2022-10-16T03:09:45;13.57;;;5.25;;
72406;SDS011;60396;47.550;18.828;2022-10-16T03:12:12;12.07;;;5.12;;
72406;SDS011;60396;47.550;18.828;2022-10-16T03:14:40;15.63;;;5.12;;
72406;SDS011;60396;47.550;18.828;2022-10-16T03:17:07;15.50;;;5.78;;
72406;SDS011;60396;47.550;18.828;2022-10-16T03:19:35;12.87;;;5.20;;
72406;SDS011;60396;47.550;18.828;2022-10-16T03:22:02;13.18;;;4.68;;
72406;SDS011;60396;47.550;18.828;2022-10-16T03:24:30;11.60;;;4.87;;
72406;SDS011;60396;47.550;18.828;2022-10-16T03:26:58;11.32;;;5.00;;
72406;SDS011;60396;47.550;18.828;2022-10-16T03:29:25;14.90;;;5.40;;
72406;SDS011;60396;47.550;18.828;2022-10-16T03:31:55;16.60;;;5.23;;
72406;SDS011;60396;47.550;18.828;2022-10-16T03:34:23;15.23;;;5.80;;
72406;SDS011;60396;47.550;18.828;2022-10-16T03:36:51;12.05;;;5.50;;
72406;SDS011;60396;47.550;18.828;2022-10-16T03:39:20;18.92;;;6.35;;
72406;SDS011;60396;47.550;18.828;2022-10-16T03:41:47;13.95;;;5.12;;
72406;SDS011;60396;47.550;18.828;2022-10-16T03:44:14;12.53;;;5.20;;
72406;SDS011;60396;47.550;18.828;2022-10-16T03:46:42;12.40;;;5.20;;
72406;SDS011;60396;47.550;18.828;2022-10-16T03:49:10;13.10;;;5.00;;
72406;SDS011;60396;47.550;18.828;2022-10-16T03:51:37;12.18;;;5.37;;
72406;SDS011;60396;47.550;18.828;2022-10-16T03:54:05;13.68;;;4.80;;
72406;SDS011;60396;47.550;18.828;2022-10-16T03:56:33;18.90;;;7.67;;
72406;SDS011;60396;47.550;18.828;2022-10-16T03:59:00;19.60;;;7.28;;
72406;SDS011;60396;47.550;18.828;2022-10-16T04:01:28;14.18;;;5.50;;
72406;SDS011;60396;47.550;18.828;2022-10-16T04:03:55;13.93;;;5.28;;
72406;SDS011;60396;47.550;18.828;2022-10-16T04:06:23;14.77;;;5.22;;
72406;SDS011;60396;47.550;18.828;2022-10-16T04:08:51;11.93;;;4.67;;
72406;SDS011;60396;47.550;18.828;2022-10-16T04:11:19;20.33;;;6.60;;
72406;SDS011;60396;47.550;18.828;2022-10-16T04:13:46;15.85;;;5.68;;
72406;SDS011;60396;47.550;18.828;2022-10-16T04:16:14;26.75;;;7.53;;
72406;SDS011;60396;47.550;18.828;2022-10-16T04:18:42;24.02;;;6.82;;
72406;SDS011;60396;47.550;18.828;2022-10-16T04:21:09;24.27;;;7.30;;
72406;SDS011;60396;47.550;18.828;2022-10-16T04:23:37;25.77;;;7.18;;
72406;SDS011;60396;47.550;18.828;2022-10-16T04:26:04;14.85;;;5.37;;
72406;SDS011;60396;47.550;18.828;2022-10-16T04:28:32;27.60;;;9.13;;
72406;SDS011;60396;47.550;18.828;2022-10-16T04:31:00;22.83;;;8.45;;
72406;SDS011;60396;47.550;18.828;2022-10-16T04:33:31;20.13;;;7.53;;
72406;SDS011;60396;47.550;18.828;2022-10-16T04:35:59;14.38;;;5.65;;
72406;SDS011;60396;47.550;18.828;2022-10-16T04:38:27;14.82;;;5.68;;
72406;SDS011;60396;47.550;18.828;2022-10-16T04:40:55;12.88;;;5.12;;
72406;SDS011;60396;47.550;18.828;2022-10-16T04:43:22;15.02;;;6.07;;
72406;SDS011;60396;47.550;18.828;2022-10-16T04:45:50;13.07;;;4.93;;
72406;SDS011;60396;47.550;18.828;2022-10-16T04:48:18;15.85;;;7.15;;
72406;SDS011;60396;47.550;18.828;2022-10-16T04:50:46;17.40;;;6.43;;
72406;SDS011;60396;47.550;18.828;2022-10-16T04:53:20;14.63;;;5.80;;
72406;SDS011;60396;47.550;18.828;2022-10-16T04:55:48;12.60;;;5.35;;
72406;SDS011;60396;47.550;18.828;2022-10-16T04:58:16;11.93;;;4.97;;
72406;SDS011;60396;47.550;18.828;2022-10-16T05:00:44;13.93;;;5.03;;
72406;SDS011;60396;47.550;18.828;2022-10-16T05:03:13;13.20;;;5.35;;
72406;SDS011;60396;47.550;18.828;2022-10-16T05:05:44;11.02;;;4.62;;
72406;SDS011;60396;47.550;18.828;2022-10-16T05:08:13;14.40;;;6.00;;
72406;SDS011;60396;47.550;18.828;2022-10-16T05:10:42;15.87;;;7.13;;
72406;SDS011;60396;47.550;18.828;2022-10-16T05:13:11;20.35;;;6.87;;
72406;SDS011;60396;47.550;18.828;2022-10-16T05:15:39;14.63;;;6.35;;
72406;SDS011;60396;47.550;18.828;2022-10-16T05:18:06;15.05;;;6.57;;
72406;SDS011;60396;47.550;18.828;2022-10-16T05:20:34;17.75;;;6.28;;
72406;SDS011;60396;47.550;18.828;2022-10-16T05:23:01;13.10;;;5.23;;
72406;SDS011;60396;47.550;18.828;2022-10-16T05:25:29;13.02;;;5.47;;
72406;SDS011;60396;47.550;18.828;2022-10-16T05:27:56;12.52;;;5.22;;
72406;SDS011;60396;47.550;18.828;2022-10-16T05:30:24;17.45;;;6.65;;
72406;SDS011;60396;47.550;18.828;2022-10-16T05:32:52;11.85;;;5.60;;
72406;SDS011;60396;47.550;18.828;2022-10-16T05:35:19;13.03;;;5.83;;
72406;SDS011;60396;47.550;18.828;2022-10-16T05:37:48;14.25;;;6.90;;
72406;SDS011;60396;47.550;18.828;2022-10-16T05:40:15;17.10;;;6.62;;
72406;SDS011;60396;47.550;18.828;2022-10-16T05:42:43;15.77;;;7.10;;
72406;SDS011;60396;47.550;18.828;2022-10-16T05:45:11;22.17;;;7.07;;
72406;SDS011;60396;47.550;18.828;2022-10-16T05:47:39;15.50;;;6.93;;
72406;SDS011;60396;47.550;18.828;2022-10-16T05:50:07;15.55;;;7.05;;
72406;SDS011;60396;47.550;18.828;2022-10-16T05:52:35;16.27;;;7.12;;
72406;SDS011;60396;47.550;18.828;2022-10-16T05:55:02;13.10;;;6.68;;
72406;SDS011;60396;47.550;18.828;2022-10-16T05:57:30;13.60;;;6.57;;
72406;SDS011;60396;47.550;18.828;2022-10-16T05:59:58;18.93;;;6.63;;
72406;SDS011;60396;47.550;18.828;2022-10-16T06:02:26;16.08;;;6.87;;
72406;SDS011;60396;47.550;18.828;2022-10-16T06:04:54;18.02;;;7.05;;
72406;SDS011;60396;47.550;18.828;2022-10-16T06:07:22;13.80;;;6.40;;
72406;SDS011;60396;47.550;18.828;2022-10-16T06:09:50;13.25;;;6.40;;
72406;SDS011;60396;47.550;18.828;2022-10-16T06:12:19;14.03;;;6.00;;
72406;SDS011;60396;47.550;18.828;2022-10-16T06:14:46;16.10;;;6.53;;
72406;SDS011;60396;47.550;18.828;2022-10-16T06:17:14;16.10;;;6.25;;
72406;SDS011;60396;47.550;18.828;2022-10-16T06:19:42;16.90;;;5.87;;
72406;SDS011;60396;47.550;18.828;2022-10-16T06:22:10;14.63;;;5.90;;
72406;SDS011;60396;47.550;18.828;2022-10-16T06:24:37;20.60;;;5.93;;
72406;SDS011;60396;47.550;18.828;2022-10-16T06:27:06;11.88;;;5.65;;
72406;SDS011;60396;47.550;18.828;2022-10-16T06:29:33;11.57;;;5.80;;
72406;SDS011;60396;47.550;18.828;2022-10-16T06:32:01;13.55;;;5.50;;
72406;SDS011;60396;47.550;18.828;2022-10-16T06:34:29;14.35;;;5.78;;
72406;SDS011;60396;47.550;18.828;2022-10-16T06:36:56;14.03;;;5.87;;
72406;SDS011;60396;47.550;18.828;2022-10-16T06:39:24;14.77;;;6.07;;
72406;SDS011;60396;47.550;18.828;2022-10-16T06:41:51;13.00;;;5.53;;
72406;SDS011;60396;47.550;18.828;2022-10-16T06:44:19;14.50;;;5.85;;
72406;SDS011;60396;47.550;18.828;2022-10-16T06:46:47;13.30;;;5.53;;
72406;SDS011;60396;47.550;18.828;2022-10-16T06:49:15;12.90;;;6.03;;
72406;SDS011;60396;47.550;18.828;2022-10-16T06:51:48;14.63;;;5.90;;
72406;SDS011;60396;47.550;18.828;2022-10-16T06:54:16;10.75;;;5.05;;
72406;SDS011;60396;47.550;18.828;2022-10-16T06:56:44;13.35;;;5.47;;
72406;SDS011;60396;47.550;18.828;2022-10-16T06:59:12;12.90;;;5.97;;
72406;SDS011;60396;47.550;18.828;2022-10-16T07:01:40;12.93;;;5.70;;
72406;SDS011;60396;47.550;18.828;2022-10-16T07:04:07;17.70;;;6.25;;
72406;SDS011;60396;47.550;18.828;2022-10-16T07:06:35;11.48;;;5.50;;
72406;SDS011;60396;47.550;18.828;2022-10-16T07:09:04;15.73;;;6.55;;
72406;SDS011;60396;47.550;18.828;2022-10-16T07:11:33;16.55;;;6.05;;
72406;SDS011;60396;47.550;18.828;2022-10-16T07:14:01;16.33;;;5.50;;
72406;SDS011;60396;47.550;18.828;2022-10-16T07:16:29;15.30;;;5.20;;
72406;SDS011;60396;47.550;18.828;2022-10-16T07:18:59;13.23;;;5.85;;
72406;SDS011;60396;47.550;18.828;2022-10-16T07:21:28;13.38;;;5.55;;
72406;SDS011;60396;47.550;18.828;2022-10-16T07:23:58;15.32;;;5.53;;
72406;SDS011;60396;47.550;18.828;2022-10-16T07:26:29;13.43;;;5.73;;
72406;SDS011;60396;47.550;18.828;2022-10-16T07:28:58;24.95;;;7.50;;
72406;SDS011;60396;47.550;18.828;2022-10-16T07:31:26;28.05;;;10.32;;
72406;SDS011;60396;47.550;18.828;2022-10-16T07:33:53;19.15;;;8.35;;
72406;SDS011;60396;47.550;18.828;2022-10-16T07:36:21;19.70;;;8.23;;
72406;SDS011;60396;47.550;18.828;2022-10-16T07:38:49;14.13;;;6.63;;
72406;SDS011;60396;47.550;18.828;2022-10-16T07:41:21;12.90;;;5.70;;
72406;SDS011;60396;47.550;18.828;2022-10-16T07:43:49;12.73;;;5.18;;
72406;SDS011;60396;47.550;18.828;2022-10-16T07:46:22;15.50;;;5.97;;
72406;SDS011;60396;47.550;18.828;2022-10-16T07:48:49;13.02;;;5.45;;
72406;SDS011;60396;47.550;18.828;2022-10-16T07:51:18;10.53;;;5.63;;
72406;SDS011;60396;47.550;18.828;2022-10-16T07:53:47;10.80;;;5.68;;
72406;SDS011;60396;47.550;18.828;2022-10-16T07:56:15;16.02;;;5.50;;
72406;SDS011;60396;47.550;18.828;2022-10-16T07:58:43;14.50;;;6.30;;
72406;SDS011;60396;47.550;18.828;2022-10-16T08:01:12;12.07;;;5.75;;
72406;SDS011;60396;47.550;18.828;2022-10-16T08:03:42;17.93;;;8.00;;
72406;SDS011;60396;47.550;18.828;2022-10-16T08:06:14;17.40;;;6.70;;
72406;SDS011;60396;47.550;18.828;2022-10-16T08:08:42;11.35;;;5.15;;
72406;SDS011;60396;47.550;18.828;2022-10-16T08:11:10;12.85;;;5.22;;
72406;SDS011;60396;47.550;18.828;2022-10-16T08:13:37;13.62;;;5.62;;
72406;SDS011;60396;47.550;18.828;2022-10-16T08:16:05;11.67;;;4.73;;
72406;SDS011;60396;47.550;18.828;2022-10-16T08:18:37;15.20;;;6.35;;
72406;SDS011;60396;47.550;18.828;2022-10-16T08:21:06;16.20;;;6.57;;
72406;SDS011;60396;47.550;18.828;2022-10-16T08:23:35;15.10;;;5.90;;
72406;SDS011;60396;47.550;18.828;2022-10-16T08:26:04;13.15;;;5.47;;
72406;SDS011;60396;47.550;18.828;2022-10-16T08:28:33;10.63;;;5.40;;
72406;SDS011;60396;47.550;18.828;2022-10-16T08:31:11;10.40;;;4.82;;
72406;SDS011;60396;47.550;18.828;2022-10-16T08:33:41;13.05;;;5.05;;
72406;SDS011;60396;47.550;18.828;2022-10-16T08:36:10;11.35;;;4.62;;
72406;SDS011;60396;47.550;18.828;2022-10-16T08:38:38;11.98;;;4.82;;
72406;SDS011;60396;47.550;18.828;2022-10-16T08:41:14;10.53;;;5.63;;
72406;SDS011;60396;47.550;18.828;2022-10-16T08:46:58;15.50;;;5.45;;
72406;SDS011;60396;47.550;18.828;2022-10-16T08:49:41;10.95;;;4.93;;
72406;SDS011;60396;47.550;18.828;2022-10-16T08:52:15;14.63;;;6.45;;
72406;SDS011;60396;47.550;18.828;2022-10-16T08:54:46;12.33;;;5.17;;
72406;SDS011;60396;47.550;18.828;2022-10-16T08:57:16;13.95;;;5.32;;
72406;SDS011;60396;47.550;18.828;2022-10-16T08:59:50;10.88;;;4.75;;
72406;SDS011;60396;47.550;18.828;2022-10-16T09:02:24;11.63;;;5.12;;
72406;SDS011;60396;47.550;18.828;2022-10-16T09:13:27;12.45;;;5.78;;
72406;SDS011;60396;47.550;18.828;2022-10-16T09:15:58;13.57;;;5.25;;
72406;SDS011;60396;47.550;18.828;2022-10-16T09:21:21;13.37;;;5.53;;
72406;SDS011;60396;47.550;18.828;2022-10-16T09:23:51;14.52;;;5.68;;
72406;SDS011;60396;47.550;18.828;2022-10-16T09:26:19;18.70;;;4.90;;
72406;SDS011;60396;47.550;18.828;2022-10-16T09:28:51;15.32;;;6.68;;
72406;SDS011;60396;47.550;18.828;2022-10-16T09:31:20;12.00;;;4.87;;
72406;SDS011;60396;47.550;18.828;2022-10-16T09:33:51;17.57;;;5.87;;
72406;SDS011;60396;47.550;18.828;2022-10-16T09:36:21;23.42;;;10.02;;
72406;SDS011;60396;47.550;18.828;2022-10-16T09:39:00;18.33;;;8.57;;
72406;SDS011;60396;47.550;18.828;2022-10-16T09:41:30;10.48;;;4.80;;
72406;SDS011;60396;47.550;18.828;2022-10-16T09:43:59;11.43;;;4.80;;
72406;SDS011;60396;47.550;18.828;2022-10-16T09:49:03;11.85;;;5.20;;
72406;SDS011;60396;47.550;18.828;2022-10-16T09:51:35;12.60;;;5.30;;
72406;SDS011;60396;47.550;18.828;2022-10-16T09:56:35;18.83;;;6.85;;
72406;SDS011;60396;47.550;18.828;2022-10-16T09:59:11;12.67;;;5.33;;
72406;SDS011;60396;47.550;18.828;2022-10-16T10:02:02;15.45;;;5.68;;
72406;SDS011;60396;47.550;18.828;2022-10-16T10:04:39;14.93;;;6.80;;
72406;SDS011;60396;47.550;18.828;2022-10-16T10:07:15;14.00;;;5.93;;
72406;SDS011;60396;47.550;18.828;2022-10-16T10:09:46;11.50;;;5.40;;
72406;SDS011;60396;47.550;18.828;2022-10-16T10:12:17;12.33;;;5.07;;
72406;SDS011;60396;47.550;18.828;2022-10-16T10:14:54;11.38;;;5.18;;
72406;SDS011;60396;47.550;18.828;2022-10-16T10:17:24;13.90;;;5.97;;
72406;SDS011;60396;47.550;18.828;2022-10-16T10:20:00;25.12;;;5.40;;
72406;SDS011;60396;47.550;18.828;2022-10-16T10:22:46;10.60;;;5.00;;
72406;SDS011;60396;47.550;18.828;2022-10-16T10:31:35;12.07;;;5.20;;
72406;SDS011;60396;47.550;18.828;2022-10-16T10:34:24;20.95;;;6.70;;
72406;SDS011;60396;47.550;18.828;2022-10-16T10:37:45;11.93;;;4.35;;
72406;SDS011;60396;47.550;18.828;2022-10-16T10:42:47;13.27;;;5.47;;
72406;SDS011;60396;47.550;18.828;2022-10-16T10:45:27;9.70;;;4.53;;
72406;SDS011;60396;47.550;18.828;2022-10-16T10:48:11;13.45;;;5.18;;
72406;SDS011;60396;47.550;18.828;2022-10-16T10:50:57;12.45;;;5.45;;
72406;SDS011;60396;47.550;18.828;2022-10-16T10:53:36;10.63;;;4.53;;
72406;SDS011;60396;47.550;18.828;2022-10-16T10:58:58;14.35;;;4.57;;
72406;SDS011;60396;47.550;18.828;2022-10-16T11:09:49;12.13;;;4.30;;
72406;SDS011;60396;47.550;18.828;2022-10-16T11:12:26;10.15;;;4.28;;
72406;SDS011;60396;47.550;18.828;2022-10-16T11:17:39;10.88;;;4.35;;
72406;SDS011;60396;47.550;18.828;2022-10-16T11:20:26;10.20;;;4.40;;
72406;SDS011;60396;47.550;18.828;2022-10-16T11:25:27;11.73;;;4.62;;
72406;SDS011;60396;47.550;18.828;2022-10-16T11:30:52;11.52;;;4.28;;
72406;SDS011;60396;47.550;18.828;2022-10-16T11:36:49;13.30;;;4.03;;
72406;SDS011;60396;47.550;18.828;2022-10-16T11:39:24;9.48;;;3.90;;
72406;SDS011;60396;47.550;18.828;2022-10-16T11:41:54;9.85;;;4.85;;
72406;SDS011;60396;47.550;18.828;2022-10-16T11:44:42;9.60;;;4.15;;
72406;SDS011;60396;47.550;18.828;2022-10-16T11:55:55;8.27;;;3.05;;
72406;SDS011;60396;47.550;18.828;2022-10-16T11:58:25;16.35;;;5.47;;
72406;SDS011;60396;47.550;18.828;2022-10-16T12:01:00;10.53;;;3.90;;
72406;SDS011;60396;47.550;18.828;2022-10-16T12:03:50;11.35;;;4.20;;
72406;SDS011;60396;47.550;18.828;2022-10-16T12:08:58;12.35;;;4.22;;
72406;SDS011;60396;47.550;18.828;2022-10-16T12:11:37;16.08;;;5.05;;
72406;SDS011;60396;47.550;18.828;2022-10-16T12:19:24;8.18;;;3.90;;
72406;SDS011;60396;47.550;18.828;2022-10-16T12:21:55;10.85;;;5.60;;
72406;SDS011;60396;47.550;18.828;2022-10-16T12:24:35;10.82;;;3.67;;
72406;SDS011;60396;47.550;18.828;2022-10-16T12:27:20;8.77;;;3.70;;
72406;SDS011;60396;47.550;18.828;2022-10-16T12:29:54;10.15;;;4.15;;
72406;SDS011;60396;47.550;18.828;2022-10-16T12:35:24;12.18;;;3.97;;
72406;SDS011;60396;47.550;18.828;2022-10-16T12:37:54;10.80;;;4.00;;
72406;SDS011;60396;47.550;18.828;2022-10-16T12:42:49;8.70;;;3.90;;
72406;SDS011;60396;47.550;18.828;2022-10-16T12:45:32;11.02;;;3.58;;
72406;SDS011;60396;47.550;18.828;2022-10-16T12:48:02;10.13;;;4.00;;
72406;SDS011;60396;47.550;18.828;2022-10-16T12:50:36;10.85;;;3.95;;
72406;SDS011;60396;47.550;18.828;2022-10-16T12:53:24;9.23;;;4.10;;
72406;SDS011;60396;47.550;18.828;2022-10-16T12:55:59;10.90;;;3.75;;
72406;SDS011;60396;47.550;18.828;2022-10-16T12:58:58;9.65;;;4.10;;
72406;SDS011;60396;47.550;18.828;2022-10-16T13:04:22;9.25;;;3.53;;
72406;SDS011;60396;47.550;18.828;2022-10-16T13:06:59;8.47;;;3.87;;
72406;SDS011;60396;47.550;18.828;2022-10-16T13:09:54;8.93;;;3.65;;
72406;SDS011;60396;47.550;18.828;2022-10-16T13:18:05;7.82;;;3.28;;
72406;SDS011;60396;47.550;18.828;2022-10-16T13:20:51;10.37;;;3.80;;
72406;SDS011;60396;47.550;18.828;2022-10-16T13:28:58;8.60;;;3.72;;
72406;SDS011;60396;47.550;18.828;2022-10-16T13:31:27;11.50;;;3.55;;
72406;SDS011;60396;47.550;18.828;2022-10-16T13:33:56;10.90;;;4.00;;
72406;SDS011;60396;47.550;18.828;2022-10-16T13:36:28;9.02;;;3.65;;
72406;SDS011;60396;47.550;18.828;2022-10-16T13:39:01;9.95;;;3.85;;
72406;SDS011;60396;47.550;18.828;2022-10-16T13:41:37;9.48;;;3.72;;
72406;SDS011;60396;47.550;18.828;2022-10-16T13:44:07;10.00;;;3.78;;
72406;SDS011;60396;47.550;18.828;2022-10-16T13:46:39;9.17;;;3.83;;
72406;SDS011;60396;47.550;18.828;2022-10-16T13:49:16;8.57;;;4.28;;
72406;SDS011;60396;47.550;18.828;2022-10-16T13:51:57;8.55;;;3.85;;
72406;SDS011;60396;47.550;18.828;2022-10-16T13:54:26;8.63;;;3.87;;
72406;SDS011;60396;47.550;18.828;2022-10-16T13:56:56;8.93;;;3.67;;
72406;SDS011;60396;47.550;18.828;2022-10-16T13:59:36;7.87;;;3.40;;
72406;SDS011;60396;47.550;18.828;2022-10-16T14:04:50;11.80;;;3.80;;
72406;SDS011;60396;47.550;18.828;2022-10-16T14:07:20;8.23;;;2.90;;
72406;SDS011;60396;47.550;18.828;2022-10-16T14:09:52;14.85;;;5.75;;
72406;SDS011;60396;47.550;18.828;2022-10-16T14:12:21;9.53;;;3.73;;
72406;SDS011;60396;47.550;18.828;2022-10-16T14:14:55;7.68;;;3.72;;
72406;SDS011;60396;47.550;18.828;2022-10-16T14:17:24;9.23;;;3.22;;
72406;SDS011;60396;47.550;18.828;2022-10-16T14:19:57;8.70;;;3.50;;
72406;SDS011;60396;47.550;18.828;2022-10-16T14:22:35;9.35;;;3.78;;
72406;SDS011;60396;47.550;18.828;2022-10-16T14:28:03;11.10;;;3.95;;
72406;SDS011;60396;47.550;18.828;2022-10-16T14:30:33;9.82;;;3.30;;
72406;SDS011;60396;47.550;18.828;2022-10-16T14:33:18;9.25;;;3.60;;
72406;SDS011;60396;47.550;18.828;2022-10-16T14:35:59;9.70;;;3.60;;
72406;SDS011;60396;47.550;18.828;2022-10-16T14:38:36;9.07;;;3.33;;
72406;SDS011;60396;47.550;18.828;2022-10-16T14:41:06;12.57;;;3.70;;
72406;SDS011;60396;47.550;18.828;2022-10-16T14:43:34;10.75;;;3.70;;
72406;SDS011;60396;47.550;18.828;2022-10-16T14:46:06;9.88;;;3.33;;
72406;SDS011;60396;47.550;18.828;2022-10-16T14:48:41;10.65;;;3.58;;
72406;SDS011;60396;47.550;18.828;2022-10-16T14:51:19;9.10;;;3.37;;
72406;SDS011;60396;47.550;18.828;2022-10-16T14:53:47;10.10;;;3.22;;
72406;SDS011;60396;47.550;18.828;2022-10-16T14:58:52;8.30;;;3.58;;
72406;SDS011;60396;47.550;18.828;2022-10-16T15:01:20;9.55;;;3.22;;
72406;SDS011;60396;47.550;18.828;2022-10-16T15:03:48;7.43;;;3.00;;
72406;SDS011;60396;47.550;18.828;2022-10-16T15:06:16;8.85;;;3.33;;
72406;SDS011;60396;47.550;18.828;2022-10-16T15:08:44;9.90;;;3.60;;
72406;SDS011;60396;47.550;18.828;2022-10-16T15:11:12;10.35;;;3.33;;
72406;SDS011;60396;47.550;18.828;2022-10-16T15:13:42;10.68;;;4.18;;
72406;SDS011;60396;47.550;18.828;2022-10-16T15:16:13;8.23;;;3.60;;
72406;SDS011;60396;47.550;18.828;2022-10-16T15:18:43;9.55;;;3.53;;
72406;SDS011;60396;47.550;18.828;2022-10-16T15:21:21;10.60;;;3.65;;
72406;SDS011;60396;47.550;18.828;2022-10-16T15:23:52;10.10;;;3.37;;
72406;SDS011;60396;47.550;18.828;2022-10-16T15:26:20;8.45;;;3.55;;
72406;SDS011;60396;47.550;18.828;2022-10-16T15:28:47;7.87;;;3.30;;
72406;SDS011;60396;47.550;18.828;2022-10-16T15:31:15;8.30;;;3.17;;
72406;SDS011;60396;47.550;18.828;2022-10-16T15:33:42;8.68;;;2.95;;
72406;SDS011;60396;47.550;18.828;2022-10-16T15:36:10;9.25;;;3.15;;
72406;SDS011;60396;47.550;18.828;2022-10-16T15:38:38;9.23;;;3.70;;
72406;SDS011;60396;47.550;18.828;2022-10-16T15:41:05;8.43;;;2.97;;
72406;SDS011;60396;47.550;18.828;2022-10-16T15:43:33;8.15;;;3.03;;
72406;SDS011;60396;47.550;18.828;2022-10-16T15:46:02;8.63;;;3.33;;
72406;SDS011;60396;47.550;18.828;2022-10-16T15:48:31;7.15;;;2.87;;
72406;SDS011;60396;47.550;18.828;2022-10-16T15:50:59;10.65;;;3.70;;
72406;SDS011;60396;47.550;18.828;2022-10-16T15:53:27;8.50;;;3.30;;
72406;SDS011;60396;47.550;18.828;2022-10-16T15:55:55;9.05;;;3.28;;
72406;SDS011;60396;47.550;18.828;2022-10-16T15:58:22;12.93;;;2.90;;
72406;SDS011;60396;47.550;18.828;2022-10-16T16:00:54;9.63;;;3.67;;
72406;SDS011;60396;47.550;18.828;2022-10-16T16:03:25;8.32;;;3.05;;
72406;SDS011;60396;47.550;18.828;2022-10-16T16:05:52;8.00;;;3.53;;
72406;SDS011;60396;47.550;18.828;2022-10-16T16:08:20;8.95;;;3.17;;
72406;SDS011;60396;47.550;18.828;2022-10-16T16:11:05;9.60;;;3.15;;
72406;SDS011;60396;47.550;18.828;2022-10-16T16:13:34;7.97;;;3.40;;
72406;SDS011;60396;47.550;18.828;2022-10-16T16:16:04;13.50;;;3.10;;
72406;SDS011;60396;47.550;18.828;2022-10-16T16:18:33;10.33;;;3.47;;
72406;SDS011;60396;47.550;18.828;2022-10-16T16:21:00;7.57;;;2.87;;
72406;SDS011;60396;47.550;18.828;2022-10-16T16:23:28;9.95;;;2.92;;
72406;SDS011;60396;47.550;18.828;2022-10-16T16:26:03;9.55;;;3.72;;
72406;SDS011;60396;47.550;18.828;2022-10-16T16:28:42;8.55;;;3.30;;
72406;SDS011;60396;47.550;18.828;2022-10-16T16:31:10;8.43;;;3.70;;
72406;SDS011;60396;47.550;18.828;2022-10-16T16:33:38;7.47;;;3.20;;
72406;SDS011;60396;47.550;18.828;2022-10-16T16:36:05;8.23;;;3.33;;
72406;SDS011;60396;47.550;18.828;2022-10-16T16:38:40;8.63;;;3.70;;